Time;durP1;ratioP1;P1;durP2;ratioP2;P2;SDS_P1;SDS_P2;PMS_P1;PMS_P2;Temp;Humidity;BMP_temperature;BMP_pressure;BME280_temperature;BME280_humidity;BME280_pressure;Samples;Min_cycle;Max_cycle;Signal;HPM_P1;HPM_P2
2022/04/09 00:00:30;;;;;;;6.87;4.47;;;6.00;99.90;;;;;;4425444;32;20188;-71
2022/04/09 00:02:58;;;;;;;8.23;4.43;;;6.00;99.90;;;;;;4422741;32;20178;-71
2022/04/09 00:05:26;;;;;;;7.30;5.37;;;5.90;99.90;;;;;;4424974;32;20181;-71
2022/04/09 00:07:53;;;;;;;8.83;4.97;;;5.90;99.90;;;;;;4423643;32;20174;-71
2022/04/09 00:10:20;;;;;;;8.13;5.07;;;5.90;99.90;;;;;;4423427;32;20245;-71
2022/04/09 00:12:47;;;;;;;7.73;5.00;;;5.90;99.90;;;;;;4423430;32;20172;-71
2022/04/09 00:15:16;;;;;;;8.67;4.90;;;5.90;99.90;;;;;;4423842;32;20197;-71
2022/04/09 00:17:45;;;;;;;7.27;4.70;;;6.00;99.90;;;;;;4425324;32;20219;-71
2022/04/09 00:20:14;;;;;;;8.00;5.50;;;6.00;99.90;;;;;;4424744;32;20215;-71
2022/04/09 00:22:42;;;;;;;7.43;4.93;;;5.90;99.90;;;;;;4424900;32;20268;-71
2022/04/09 00:25:13;;;;;;;7.47;5.03;;;6.00;99.90;;;;;;4426056;32;20243;-71
2022/04/09 00:27:40;;;;;;;8.67;5.17;;;6.00;99.90;;;;;;4426201;32;20209;-71
2022/04/09 00:30:09;;;;;;;7.80;5.27;;;5.90;99.90;;;;;;4426420;32;20228;-70
2022/04/09 00:32:36;;;;;;;8.47;5.30;;;6.00;99.90;;;;;;4439472;32;20175;-71
2022/04/09 00:35:04;;;;;;;8.97;5.80;;;6.00;99.90;;;;;;4426423;32;20226;-70
2022/04/09 00:37:33;;;;;;;6.37;4.57;;;6.00;99.90;;;;;;4426133;32;20539;-71
2022/04/09 00:40:00;;;;;;;7.83;5.20;;;6.00;99.90;;;;;;4425359;32;20243;-71
2022/04/09 00:42:27;;;;;;;8.83;5.73;;;5.90;99.90;;;;;;4424538;32;20200;-71
2022/04/09 00:44:55;;;;;;;9.97;6.03;;;5.90;99.90;;;;;;4439861;32;20215;-71
2022/04/09 00:47:22;;;;;;;8.07;5.50;;;5.90;99.90;;;;;;4430549;32;20175;-70
2022/04/09 00:49:49;;;;;;;7.37;5.30;;;5.80;99.90;;;;;;4441143;32;20207;-71
2022/04/09 00:52:17;;;;;;;9.37;5.60;;;5.80;99.90;;;;;;4440105;32;20462;-71
2022/04/09 00:54:48;;;;;;;7.50;4.80;;;5.90;99.90;;;;;;4440172;32;20176;-71
2022/04/09 00:57:16;;;;;;;7.87;5.17;;;5.90;99.90;;;;;;4441256;32;20200;-71
2022/04/09 00:59:49;;;;;;;7.73;5.17;;;5.90;99.90;;;;;;4428646;32;20193;-70
2022/04/09 01:02:17;;;;;;;8.40;5.20;;;5.90;99.90;;;;;;4441647;32;20207;-71
2022/04/09 01:04:46;;;;;;;7.40;5.50;;;5.80;99.90;;;;;;4440071;32;20180;-71
2022/04/09 01:07:13;;;;;;;7.67;5.47;;;5.80;99.90;;;;;;4441092;32;20169;-71
2022/04/09 01:09:41;;;;;;;7.73;5.23;;;5.80;99.90;;;;;;4441095;32;20215;-70
2022/04/09 01:12:09;;;;;;;6.77;5.20;;;5.80;99.90;;;;;;4440880;32;20186;-70
2022/04/09 01:14:36;;;;;;;7.17;5.40;;;5.90;99.90;;;;;;4440072;32;20234;-71
2022/04/09 01:17:03;;;;;;;8.37;5.30;;;5.90;99.90;;;;;;4440382;32;20191;-71
2022/04/09 01:19:30;;;;;;;8.67;5.30;;;5.90;99.90;;;;;;4440264;32;20212;-70
2022/04/09 01:22:00;;;;;;;8.53;5.20;;;5.90;99.90;;;;;;4440410;32;20173;-70
2022/04/09 01:24:27;;;;;;;6.27;4.90;;;5.90;99.90;;;;;;4439713;32;20200;-70
2022/04/09 01:26:54;;;;;;;8.73;5.20;;;5.80;99.90;;;;;;4440196;32;20247;-70
2022/04/09 01:29:21;;;;;;;6.47;5.30;;;5.70;99.90;;;;;;4440578;32;20602;-71
2022/04/09 01:31:48;;;;;;;8.13;5.07;;;5.70;99.90;;;;;;4440608;32;20196;-70
2022/04/09 01:34:16;;;;;;;8.07;5.50;;;5.70;99.90;;;;;;4441003;32;20177;-70
2022/04/09 01:36:43;;;;;;;7.33;5.27;;;5.70;99.90;;;;;;4442282;32;20185;-71
2022/04/09 01:39:10;;;;;;;7.23;5.10;;;5.70;99.90;;;;;;4440701;32;20469;-71
2022/04/09 01:41:37;;;;;;;8.43;5.83;;;5.70;99.90;;;;;;4442118;32;20181;-71
2022/04/09 01:44:04;;;;;;;7.53;5.13;;;5.70;99.90;;;;;;4439150;32;20203;-70
2022/04/09 01:46:31;;;;;;;6.73;5.13;;;5.70;99.90;;;;;;4455911;32;20199;-70
2022/04/09 01:48:58;;;;;;;7.47;5.43;;;5.70;99.90;;;;;;4441272;32;20181;-70
2022/04/09 01:51:25;;;;;;;7.53;5.47;;;5.70;99.90;;;;;;4440810;32;20213;-71
2022/04/09 01:53:52;;;;;;;8.43;5.50;;;5.70;99.90;;;;;;4453958;32;20144;-70
2022/04/09 01:56:19;;;;;;;7.13;5.20;;;5.60;99.90;;;;;;4443026;32;20175;-70
2022/04/09 01:58:46;;;;;;;7.17;5.83;;;5.60;99.90;;;;;;4444702;32;20187;-70
2022/04/09 02:01:17;;;;;;;7.97;5.80;;;5.60;99.90;;;;;;4443342;32;20216;-70
2022/04/09 02:03:44;;;;;;;8.73;6.00;;;5.50;99.90;;;;;;4442214;32;20222;-70
2022/04/09 02:06:11;;;;;;;7.30;5.50;;;5.50;99.90;;;;;;4443369;32;20226;-70
2022/04/09 02:08:38;;;;;;;7.80;6.00;;;5.50;99.90;;;;;;4443325;32;20179;-70
2022/04/09 02:11:05;;;;;;;8.10;5.70;;;5.40;99.90;;;;;;4442776;32;20178;-70
2022/04/09 02:13:32;;;;;;;8.03;5.73;;;5.40;99.90;;;;;;4442697;32;20186;-70
2022/04/09 02:15:59;;;;;;;8.63;5.77;;;5.50;99.90;;;;;;4443198;32;20189;-70
2022/04/09 02:18:27;;;;;;;7.23;5.57;;;5.50;99.90;;;;;;4443287;32;20220;-70
2022/04/09 02:20:55;;;;;;;7.77;5.40;;;5.50;99.90;;;;;;4456733;32;20181;-70
2022/04/09 02:23:22;;;;;;;8.57;5.60;;;5.60;99.90;;;;;;4442839;32;20197;-71
2022/04/09 02:25:49;;;;;;;7.80;6.00;;;5.60;99.90;;;;;;4442936;32;20189;-70
2022/04/09 02:28:15;;;;;;;7.93;5.07;;;5.60;99.90;;;;;;4457177;32;20144;-71
2022/04/09 02:30:43;;;;;;;8.53;5.70;;;5.60;99.90;;;;;;4443045;32;20182;-71
2022/04/09 02:33:10;;;;;;;7.43;5.47;;;5.60;99.90;;;;;;4456434;32;20142;-71
2022/04/09 02:35:36;;;;;;;7.30;5.47;;;5.60;99.90;;;;;;4442034;32;20202;-70
2022/04/09 02:38:04;;;;;;;6.83;5.47;;;5.60;99.90;;;;;;4457248;32;20172;-71
2022/04/09 02:40:31;;;;;;;10.40;5.90;;;5.60;99.90;;;;;;4457177;32;20137;-71
2022/04/09 02:42:58;;;;;;;8.87;5.87;;;5.60;99.90;;;;;;4444031;32;20174;-71
2022/04/09 02:45:25;;;;;;;8.67;5.70;;;5.60;99.90;;;;;;4453950;32;20153;-71
2022/04/09 02:47:52;;;;;;;7.33;5.70;;;5.60;99.90;;;;;;4441677;32;20180;-71
2022/04/09 02:50:19;;;;;;;7.63;5.70;;;5.60;99.90;;;;;;4431443;32;20571;-71
2022/04/09 02:52:46;;;;;;;7.83;5.73;;;5.60;99.90;;;;;;4439077;32;20484;-70
2022/04/09 02:55:13;;;;;;;7.50;5.73;;;5.60;99.90;;;;;;4427338;32;20587;-70
2022/04/09 02:57:40;;;;;;;9.40;5.90;;;5.60;99.90;;;;;;4437570;32;20216;-71
2022/04/09 03:00:13;;;;;;;7.63;5.43;;;5.60;99.90;;;;;;4442756;32;20177;-71
2022/04/09 03:02:42;;;;;;;7.40;5.10;;;5.60;99.90;;;;;;4442249;32;20649;-71
2022/04/09 03:05:10;;;;;;;7.27;5.87;;;5.70;99.90;;;;;;4438901;32;20193;-71
2022/04/09 03:07:37;;;;;;;6.93;5.17;;;5.70;99.90;;;;;;4440047;32;20196;-71
2022/04/09 03:10:04;;;;;;;7.47;5.27;;;5.70;99.90;;;;;;4440130;32;20170;-71
2022/04/09 03:12:31;;;;;;;6.70;5.30;;;5.70;99.90;;;;;;4456390;32;20568;-70
2022/04/09 03:14:58;;;;;;;7.47;4.90;;;5.60;99.90;;;;;;4440910;32;20535;-70
2022/04/09 03:17:26;;;;;;;7.40;5.23;;;5.60;99.90;;;;;;4456165;32;20205;-70
2022/04/09 03:19:53;;;;;;;6.93;5.53;;;5.60;99.90;;;;;;4442476;32;20169;-70
2022/04/09 03:22:21;;;;;;;7.10;5.23;;;5.60;99.90;;;;;;4441654;32;20183;-71
2022/04/09 03:24:49;;;;;;;7.73;5.50;;;5.60;99.90;;;;;;4440629;32;20542;-72
2022/04/09 03:27:16;;;;;;;7.27;5.10;;;5.50;99.90;;;;;;4442934;32;20592;-70
2022/04/09 03:29:43;;;;;;;7.23;5.07;;;5.50;99.90;;;;;;4442179;32;20198;-70
2022/04/09 03:32:10;;;;;;;8.63;5.40;;;5.50;99.90;;;;;;4441631;32;20526;-69
2022/04/09 03:34:37;;;;;;;7.97;5.83;;;5.40;99.90;;;;;;4440134;32;20189;-70
2022/04/09 03:37:04;;;;;;;8.70;5.77;;;5.40;99.90;;;;;;4442473;32;20176;-71
2022/04/09 03:39:38;;;;;;;7.10;5.37;;;5.40;99.90;;;;;;4456369;32;20537;-70
2022/04/09 03:42:05;;;;;;;7.73;5.70;;;5.50;99.90;;;;;;4455470;32;20174;-70
2022/04/09 03:44:45;;;;;;;6.73;5.20;;;5.40;99.90;;;;;;4441708;32;20201;-70
2022/04/09 03:47:12;;;;;;;7.03;5.50;;;5.40;99.90;;;;;;4442113;32;20260;-70
2022/04/09 03:49:39;;;;;;;7.77;5.63;;;5.50;99.90;;;;;;4442384;32;20527;-70
2022/04/09 03:52:06;;;;;;;8.17;5.87;;;5.50;99.90;;;;;;4441997;32;20202;-70
2022/04/09 03:54:35;;;;;;;7.70;5.57;;;5.40;99.90;;;;;;4456142;32;20150;-72
2022/04/09 03:57:03;;;;;;;9.60;5.87;;;5.30;99.90;;;;;;4426198;32;20187;-69
2022/04/09 03:59:30;;;;;;;8.23;5.87;;;5.30;99.90;;;;;;4428344;32;20544;-69
2022/04/09 04:01:57;;;;;;;7.13;5.90;;;5.20;99.90;;;;;;4429416;32;20179;-70
2022/04/09 04:04:24;;;;;;;7.40;6.00;;;5.10;99.90;;;;;;4439291;32;20199;-70
2022/04/09 04:06:51;;;;;;;9.13;6.10;;;5.10;99.90;;;;;;4425977;32;20204;-70
2022/04/09 04:09:18;;;;;;;9.63;6.80;;;5.10;99.90;;;;;;4438643;32;20433;-69
